sensor_id;sensor_type;location;lat;lon;timestamp;temperature;humidity
31133;DHT22;17779;50.942;4.026;2023-04-01T00:00:30;10.20;99.90
31133;DHT22;17779;50.942;4.026;2023-04-01T00:02:56;10.30;99.90
31133;DHT22;17779;50.942;4.026;2023-04-01T00:05:22;10.30;99.90
31133;DHT22;17779;50.942;4.026;2023-04-01T00:07:50;10.30;99.90
31133;DHT22;17779;50.942;4.026;2023-04-01T00:10:16;10.30;99.90
31133;DHT22;17779;50.942;4.026;2023-04-01T00:12:43;10.30;99.90
31133;DHT22;17779;50.942;4.026;2023-04-01T00:15:10;10.30;99.90
31133;DHT22;17779;50.942;4.026;2023-04-01T00:17:37;10.30;99.90
31133;DHT22;17779;50.942;4.026;2023-04-01T00:20:04;10.30;99.90
31133;DHT22;17779;50.942;4.026;2023-04-01T00:22:30;10.30;99.90
31133;DHT22;17779;50.942;4.026;2023-04-01T00:24:56;10.30;99.90
31133;DHT22;17779;50.942;4.026;2023-04-01T00:27:22;10.30;99.90
31133;DHT22;17779;50.942;4.026;2023-04-01T00:29:48;10.30;99.90
31133;DHT22;17779;50.942;4.026;2023-04-01T00:32:14;10.30;99.90
31133;DHT22;17779;50.942;4.026;2023-04-01T00:34:40;10.20;99.90
31133;DHT22;17779;50.942;4.026;2023-04-01T00:37:07;10.30;99.90
31133;DHT22;17779;50.942;4.026;2023-04-01T00:39:34;10.30;99.90
31133;DHT22;17779;50.942;4.026;2023-04-01T00:42:01;10.30;99.90
31133;DHT22;17779;50.942;4.026;2023-04-01T00:44:29;10.30;99.90
31133;DHT22;17779;50.942;4.026;2023-04-01T00:46:55;10.30;99.90
31133;DHT22;17779;50.942;4.026;2023-04-01T00:49:38;10.20;99.90
31133;DHT22;17779;50.942;4.026;2023-04-01T00:52:07;10.20;99.90
31133;DHT22;17779;50.942;4.026;2023-04-01T00:54:34;10.20;99.90
31133;DHT22;17779;50.942;4.026;2023-04-01T00:57:20;10.30;99.90
31133;DHT22;17779;50.942;4.026;2023-04-01T00:59:49;10.30;99.90
31133;DHT22;17779;50.942;4.026;2023-04-01T01:02:16;10.30;99.90
31133;DHT22;17779;50.942;4.026;2023-04-01T01:04:42;10.30;99.90
31133;DHT22;17779;50.942;4.026;2023-04-01T01:09:54;10.40;99.90
31133;DHT22;17779;50.942;4.026;2023-04-01T01:21:30;10.30;99.90
31133;DHT22;17779;50.942;4.026;2023-04-01T01:24:39;10.40;99.90
31133;DHT22;17779;50.942;4.026;2023-04-01T01:27:11;10.30;99.90
31133;DHT22;17779;50.942;4.026;2023-04-01T01:32:56;10.30;99.90
31133;DHT22;17779;50.942;4.026;2023-04-01T01:35:32;10.20;99.90
31133;DHT22;17779;50.942;4.026;2023-04-01T01:38:13;10.20;99.90
31133;DHT22;17779;50.942;4.026;2023-04-01T01:40:44;10.10;99.90
31133;DHT22;17779;50.942;4.026;2023-04-01T01:43:14;10.10;99.90
31133;DHT22;17779;50.942;4.026;2023-04-01T01:45:46;10.00;99.90
31133;DHT22;17779;50.942;4.026;2023-04-01T01:48:14;10.00;99.90
31133;DHT22;17779;50.942;4.026;2023-04-01T01:50:41;9.90;99.90
31133;DHT22;17779;50.942;4.026;2023-04-01T01:53:11;9.90;99.90
31133;DHT22;17779;50.942;4.026;2023-04-01T01:55:42;9.90;99.90
31133;DHT22;17779;50.942;4.026;2023-04-01T01:58:30;9.90;99.90
31133;DHT22;17779;50.942;4.026;2023-04-01T02:00:59;10.00;99.90
31133;DHT22;17779;50.942;4.026;2023-04-01T02:03:29;10.00;99.90
31133;DHT22;17779;50.942;4.026;2023-04-01T02:05:57;10.00;99.90
31133;DHT22;17779;50.942;4.026;2023-04-01T02:11:09;10.10;99.90
31133;DHT22;17779;50.942;4.026;2023-04-01T02:13:52;10.10;99.90
31133;DHT22;17779;50.942;4.026;2023-04-01T02:16:33;10.10;99.90
31133;DHT22;17779;50.942;4.026;2023-04-01T02:19:01;10.10;99.90
31133;DHT22;17779;50.942;4.026;2023-04-01T02:21:33;10.10;99.90
31133;DHT22;17779;50.942;4.026;2023-04-01T02:24:01;10.10;99.90
31133;DHT22;17779;50.942;4.026;2023-04-01T02:26:28;10.10;99.90
31133;DHT22;17779;50.942;4.026;2023-04-01T02:28:54;10.10;99.90
31133;DHT22;17779;50.942;4.026;2023-04-01T02:31:21;10.10;99.90
31133;DHT22;17779;50.942;4.026;2023-04-01T02:33:47;10.20;99.90
31133;DHT22;17779;50.942;4.026;2023-04-01T02:36:14;10.20;99.90
31133;DHT22;17779;50.942;4.026;2023-04-01T02:38:41;10.20;99.90
31133;DHT22;17779;50.942;4.026;2023-04-01T02:41:08;10.10;99.90
31133;DHT22;17779;50.942;4.026;2023-04-01T02:43:34;10.10;99.90
31133;DHT22;17779;50.942;4.026;2023-04-01T02:45:59;10.20;99.90
31133;DHT22;17779;50.942;4.026;2023-04-01T02:48:25;10.30;99.90
31133;DHT22;17779;50.942;4.026;2023-04-01T02:50:51;10.30;99.90
31133;DHT22;17779;50.942;4.026;2023-04-01T02:53:17;10.20;99.90
31133;DHT22;17779;50.942;4.026;2023-04-01T02:55:43;10.20;99.90
31133;DHT22;17779;50.942;4.026;2023-04-01T02:58:10;10.10;99.90
31133;DHT22;17779;50.942;4.026;2023-04-01T03:00:36;10.20;99.90
31133;DHT22;17779;50.942;4.026;2023-04-01T03:03:02;10.20;99.90
31133;DHT22;17779;50.942;4.026;2023-04-01T03:05:28;10.20;99.90
31133;DHT22;17779;50.942;4.026;2023-04-01T03:07:54;10.20;99.90
31133;DHT22;17779;50.942;4.026;2023-04-01T03:10:20;10.20;99.90
31133;DHT22;17779;50.942;4.026;2023-04-01T03:12:46;10.20;99.90
31133;DHT22;17779;50.942;4.026;2023-04-01T03:15:12;10.30;99.90
31133;DHT22;17779;50.942;4.026;2023-04-01T03:17:40;10.30;99.90
31133;DHT22;17779;50.942;4.026;2023-04-01T03:20:07;10.20;99.90
31133;DHT22;17779;50.942;4.026;2023-04-01T03:22:34;10.20;99.90
31133;DHT22;17779;50.942;4.026;2023-04-01T03:25:04;10.10;99.90
31133;DHT22;17779;50.942;4.026;2023-04-01T03:27:30;10.10;99.90
31133;DHT22;17779;50.942;4.026;2023-04-01T03:29:56;10.20;99.90
31133;DHT22;17779;50.942;4.026;2023-04-01T03:32:22;10.20;99.90
31133;DHT22;17779;50.942;4.026;2023-04-01T03:34:47;10.20;99.90
31133;DHT22;17779;50.942;4.026;2023-04-01T03:37:13;10.20;99.90
31133;DHT22;17779;50.942;4.026;2023-04-01T03:39:39;10.20;99.90
31133;DHT22;17779;50.942;4.026;2023-04-01T03:42:05;10.30;99.90
31133;DHT22;17779;50.942;4.026;2023-04-01T03:44:33;10.30;99.90
31133;DHT22;17779;50.942;4.026;2023-04-01T03:46:59;10.30;99.90
31133;DHT22;17779;50.942;4.026;2023-04-01T03:49:26;10.30;99.90
31133;DHT22;17779;50.942;4.026;2023-04-01T03:51:51;10.30;99.90
31133;DHT22;17779;50.942;4.026;2023-04-01T03:54:17;10.20;99.90
31133;DHT22;17779;50.942;4.026;2023-04-01T03:56:44;10.20;99.90
31133;DHT22;17779;50.942;4.026;2023-04-01T03:59:10;10.30;99.90
31133;DHT22;17779;50.942;4.026;2023-04-01T04:01:36;10.30;99.90
31133;DHT22;17779;50.942;4.026;2023-04-01T04:04:02;10.20;99.90
31133;DHT22;17779;50.942;4.026;2023-04-01T04:06:28;10.30;99.90
31133;DHT22;17779;50.942;4.026;2023-04-01T04:08:54;10.30;99.90
31133;DHT22;17779;50.942;4.026;2023-04-01T04:11:20;10.20;99.90
31133;DHT22;17779;50.942;4.026;2023-04-01T04:13:46;10.30;99.90
31133;DHT22;17779;50.942;4.026;2023-04-01T04:16:14;10.20;99.90
31133;DHT22;17779;50.942;4.026;2023-04-01T04:18:40;10.00;99.90
31133;DHT22;17779;50.942;4.026;2023-04-01T04:21:06;10.00;99.90
31133;DHT22;17779;50.942;4.026;2023-04-01T04:23:33;9.90;99.90
31133;DHT22;17779;50.942;4.026;2023-04-01T04:26:04;9.90;99.90
31133;DHT22;17779;50.942;4.026;2023-04-01T04:28:30;10.00;99.90
31133;DHT22;17779;50.942;4.026;2023-04-01T04:30:56;10.00;99.90
31133;DHT22;17779;50.942;4.026;2023-04-01T04:33:23;9.90;99.90
31133;DHT22;17779;50.942;4.026;2023-04-01T04:35:49;9.90;99.90
31133;DHT22;17779;50.942;4.026;2023-04-01T04:38:15;10.00;99.90
31133;DHT22;17779;50.942;4.026;2023-04-01T04:40:42;10.00;99.90
31133;DHT22;17779;50.942;4.026;2023-04-01T04:43:11;9.90;99.90
31133;DHT22;17779;50.942;4.026;2023-04-01T04:45:38;9.90;99.90
31133;DHT22;17779;50.942;4.026;2023-04-01T04:48:03;10.00;99.90
31133;DHT22;17779;50.942;4.026;2023-04-01T04:50:29;9.90;99.90
31133;DHT22;17779;50.942;4.026;2023-04-01T04:52:55;9.90;99.90
31133;DHT22;17779;50.942;4.026;2023-04-01T04:55:21;9.90;99.90
31133;DHT22;17779;50.942;4.026;2023-04-01T04:57:47;10.00;99.90
31133;DHT22;17779;50.942;4.026;2023-04-01T05:00:13;9.90;99.90
31133;DHT22;17779;50.942;4.026;2023-04-01T05:02:39;9.90;99.90
31133;DHT22;17779;50.942;4.026;2023-04-01T05:05:05;9.90;99.90
31133;DHT22;17779;50.942;4.026;2023-04-01T05:07:30;9.80;99.90
31133;DHT22;17779;50.942;4.026;2023-04-01T05:09:56;9.70;99.90
31133;DHT22;17779;50.942;4.026;2023-04-01T05:12:22;9.80;99.90
31133;DHT22;17779;50.942;4.026;2023-04-01T05:14:47;9.70;99.90
31133;DHT22;17779;50.942;4.026;2023-04-01T05:17:13;9.70;99.90
31133;DHT22;17779;50.942;4.026;2023-04-01T05:19:39;9.90;99.90
31133;DHT22;17779;50.942;4.026;2023-04-01T05:22:05;9.90;99.90
31133;DHT22;17779;50.942;4.026;2023-04-01T05:24:31;9.90;99.90
31133;DHT22;17779;50.942;4.026;2023-04-01T05:26:57;9.80;99.90
31133;DHT22;17779;50.942;4.026;2023-04-01T05:29:24;9.70;99.90
31133;DHT22;17779;50.942;4.026;2023-04-01T05:31:50;9.80;99.90
31133;DHT22;17779;50.942;4.026;2023-04-01T05:34:16;9.70;99.90
31133;DHT22;17779;50.942;4.026;2023-04-01T05:36:43;9.80;99.90
31133;DHT22;17779;50.942;4.026;2023-04-01T05:39:09;9.80;99.90
31133;DHT22;17779;50.942;4.026;2023-04-01T05:41:36;9.70;99.90
31133;DHT22;17779;50.942;4.026;2023-04-01T05:44:03;9.80;99.90
31133;DHT22;17779;50.942;4.026;2023-04-01T05:46:28;9.80;99.90
31133;DHT22;17779;50.942;4.026;2023-04-01T05:48:54;9.80;99.90
31133;DHT22;17779;50.942;4.026;2023-04-01T05:51:20;9.80;99.90
31133;DHT22;17779;50.942;4.026;2023-04-01T05:53:46;9.80;99.90
31133;DHT22;17779;50.942;4.026;2023-04-01T05:56:12;9.80;99.90
31133;DHT22;17779;50.942;4.026;2023-04-01T05:58:38;9.80;99.90
31133;DHT22;17779;50.942;4.026;2023-04-01T06:01:07;9.80;99.90
31133;DHT22;17779;50.942;4.026;2023-04-01T06:03:33;9.80;99.90
31133;DHT22;17779;50.942;4.026;2023-04-01T06:05:59;9.90;99.90
31133;DHT22;17779;50.942;4.026;2023-04-01T06:08:27;10.00;99.90
31133;DHT22;17779;50.942;4.026;2023-04-01T06:14:13;10.10;99.90
31133;DHT22;17779;50.942;4.026;2023-04-01T06:17:07;10.10;99.90
31133;DHT22;17779;50.942;4.026;2023-04-01T06:19:59;10.10;99.90
31133;DHT22;17779;50.942;4.026;2023-04-01T06:28:29;10.00;99.90
31133;DHT22;17779;50.942;4.026;2023-04-01T06:39:38;10.00;99.90
31133;DHT22;17779;50.942;4.026;2023-04-01T06:50:54;10.10;99.90
31133;DHT22;17779;50.942;4.026;2023-04-01T06:56:21;9.80;99.90
31133;DHT22;17779;50.942;4.026;2023-04-01T06:59:00;9.80;99.90
31133;DHT22;17779;50.942;4.026;2023-04-01T07:01:40;9.80;99.90
31133;DHT22;17779;50.942;4.026;2023-04-01T07:04:15;9.80;99.90
31133;DHT22;17779;50.942;4.026;2023-04-01T07:07:12;9.90;99.90
31133;DHT22;17779;50.942;4.026;2023-04-01T07:09:45;9.90;99.90
31133;DHT22;17779;50.942;4.026;2023-04-01T07:14:48;10.00;99.90
31133;DHT22;17779;50.942;4.026;2023-04-01T07:17:19;10.00;99.90
31133;DHT22;17779;50.942;4.026;2023-04-01T07:19:52;10.00;99.90
31133;DHT22;17779;50.942;4.026;2023-04-01T07:22:32;9.90;99.90
31133;DHT22;17779;50.942;4.026;2023-04-01T07:25:05;10.00;99.90
31133;DHT22;17779;50.942;4.026;2023-04-01T07:27:32;10.00;99.90
31133;DHT22;17779;50.942;4.026;2023-04-01T07:29:57;10.10;99.90
31133;DHT22;17779;50.942;4.026;2023-04-01T07:33:19;10.20;99.90
31133;DHT22;17779;50.942;4.026;2023-04-01T07:35:36;10.30;99.90
31133;DHT22;17779;50.942;4.026;2023-04-01T07:43:47;10.20;99.90
31133;DHT22;17779;50.942;4.026;2023-04-01T07:46:45;10.30;99.90
31133;DHT22;17779;50.942;4.026;2023-04-01T07:49:17;10.30;99.90
31133;DHT22;17779;50.942;4.026;2023-04-01T07:57:43;10.50;99.90
31133;DHT22;17779;50.942;4.026;2023-04-01T08:05:29;10.60;99.90
31133;DHT22;17779;50.942;4.026;2023-04-01T08:08:29;10.70;99.90
31133;DHT22;17779;50.942;4.026;2023-04-01T08:22:49;10.80;99.90
31133;DHT22;17779;50.942;4.026;2023-04-01T08:25:27;10.80;99.90
31133;DHT22;17779;50.942;4.026;2023-04-01T08:27:59;10.60;99.90
31133;DHT22;17779;50.942;4.026;2023-04-01T08:30:51;10.60;99.90
31133;DHT22;17779;50.942;4.026;2023-04-01T08:33:25;10.40;99.90
31133;DHT22;17779;50.942;4.026;2023-04-01T08:36:19;10.40;99.90
31133;DHT22;17779;50.942;4.026;2023-04-01T08:51:15;11.00;99.90
31133;DHT22;17779;50.942;4.026;2023-04-01T08:56:57;10.80;99.90
31133;DHT22;17779;50.942;4.026;2023-04-01T09:04:31;11.00;99.90
31133;DHT22;17779;50.942;4.026;2023-04-01T09:07:19;10.90;99.90
31133;DHT22;17779;50.942;4.026;2023-04-01T09:10:01;10.90;99.90
31133;DHT22;17779;50.942;4.026;2023-04-01T09:20:57;10.80;99.90
31133;DHT22;17779;50.942;4.026;2023-04-01T09:40:18;11.00;99.90
31133;DHT22;17779;50.942;4.026;2023-04-01T09:56:46;11.50;99.90
31133;DHT22;17779;50.942;4.026;2023-04-01T10:05:00;11.50;99.90
31133;DHT22;17779;50.942;4.026;2023-04-01T10:10:47;11.60;99.90
31133;DHT22;17779;50.942;4.026;2023-04-01T10:27:29;11.40;99.90
31133;DHT22;17779;50.942;4.026;2023-04-01T10:30:38;11.50;99.90
31133;DHT22;17779;50.942;4.026;2023-04-01T10:33:45;11.40;99.90
31133;DHT22;17779;50.942;4.026;2023-04-01T10:36:43;11.30;99.90
31133;DHT22;17779;50.942;4.026;2023-04-01T10:42:22;11.40;99.90
31133;DHT22;17779;50.942;4.026;2023-04-01T10:51:10;11.40;99.90
31133;DHT22;17779;50.942;4.026;2023-04-01T10:57:02;11.80;99.90
31133;DHT22;17779;50.942;4.026;2023-04-01T11:30:28;12.60;99.90
31133;DHT22;17779;50.942;4.026;2023-04-01T11:36:21;12.10;99.90
31133;DHT22;17779;50.942;4.026;2023-04-01T11:44:24;12.00;99.90
31133;DHT22;17779;50.942;4.026;2023-04-01T11:52:24;11.80;99.90
31133;DHT22;17779;50.942;4.026;2023-04-01T11:55:19;11.80;99.90
31133;DHT22;17779;50.942;4.026;2023-04-01T12:00:41;12.10;99.90
31133;DHT22;17779;50.942;4.026;2023-04-01T12:03:21;12.30;99.90
31133;DHT22;17779;50.942;4.026;2023-04-01T12:09:11;11.80;99.90
31133;DHT22;17779;50.942;4.026;2023-04-01T12:17:36;12.20;99.90
31133;DHT22;17779;50.942;4.026;2023-04-01T12:39:29;11.30;99.90
31133;DHT22;17779;50.942;4.026;2023-04-01T12:55:46;11.50;99.90
31133;DHT22;17779;50.942;4.026;2023-04-01T13:01:55;11.50;99.90
31133;DHT22;17779;50.942;4.026;2023-04-01T13:07:42;11.30;99.90
31133;DHT22;17779;50.942;4.026;2023-04-01T13:18:23;11.10;99.90
31133;DHT22;17779;50.942;4.026;2023-04-01T13:21:13;11.10;99.90
31133;DHT22;17779;50.942;4.026;2023-04-01T13:26:22;10.80;99.90
31133;DHT22;17779;50.942;4.026;2023-04-01T13:29:05;10.80;99.90
31133;DHT22;17779;50.942;4.026;2023-04-01T13:39:57;11.10;99.90
31133;DHT22;17779;50.942;4.026;2023-04-01T13:42:43;11.20;99.90
31133;DHT22;17779;50.942;4.026;2023-04-01T13:45:18;11.20;99.90
31133;DHT22;17779;50.942;4.026;2023-04-01T13:48:15;11.20;99.90
31133;DHT22;17779;50.942;4.026;2023-04-01T13:53:56;11.00;99.90
31133;DHT22;17779;50.942;4.026;2023-04-01T13:56:34;11.00;99.90
31133;DHT22;17779;50.942;4.026;2023-04-01T13:59:26;10.90;99.90
31133;DHT22;17779;50.942;4.026;2023-04-01T14:02:07;10.80;99.90
31133;DHT22;17779;50.942;4.026;2023-04-01T14:15:36;10.90;99.90
31133;DHT22;17779;50.942;4.026;2023-04-01T14:21:14;11.10;99.90
31133;DHT22;17779;50.942;4.026;2023-04-01T14:23:57;11.00;99.90
31133;DHT22;17779;50.942;4.026;2023-04-01T14:49:04;11.30;99.90
31133;DHT22;17779;50.942;4.026;2023-04-01T14:51:41;11.40;99.90
31133;DHT22;17779;50.942;4.026;2023-04-01T14:54:19;11.40;99.90
31133;DHT22;17779;50.942;4.026;2023-04-01T14:59:51;11.30;99.90
31133;DHT22;17779;50.942;4.026;2023-04-01T15:02:27;11.20;99.90
31133;DHT22;17779;50.942;4.026;2023-04-01T15:08:20;11.10;99.90
31133;DHT22;17779;50.942;4.026;2023-04-01T15:11:07;11.20;99.90
31133;DHT22;17779;50.942;4.026;2023-04-01T15:16:23;11.00;99.90
31133;DHT22;17779;50.942;4.026;2023-04-01T15:19:10;11.00;99.90
31133;DHT22;17779;50.942;4.026;2023-04-01T15:24:56;10.90;99.90
31133;DHT22;17779;50.942;4.026;2023-04-01T15:27:48;10.90;99.90
31133;DHT22;17779;50.942;4.026;2023-04-01T15:41:14;10.80;99.90
31133;DHT22;17779;50.942;4.026;2023-04-01T15:43:46;10.80;99.90
31133;DHT22;17779;50.942;4.026;2023-04-01T15:49:39;10.70;99.90
31133;DHT22;17779;50.942;4.026;2023-04-01T16:00:31;10.70;99.90
31133;DHT22;17779;50.942;4.026;2023-04-01T16:22:52;10.60;99.90
31133;DHT22;17779;50.942;4.026;2023-04-01T16:30:46;10.70;99.90
31133;DHT22;17779;50.942;4.026;2023-04-01T16:33:37;10.70;99.90
31133;DHT22;17779;50.942;4.026;2023-04-01T16:36:35;10.60;99.90
31133;DHT22;17779;50.942;4.026;2023-04-01T16:39:29;10.60;99.90
31133;DHT22;17779;50.942;4.026;2023-04-01T16:45:15;10.60;99.90
31133;DHT22;17779;50.942;4.026;2023-04-01T16:48:15;10.50;99.90
31133;DHT22;17779;50.942;4.026;2023-04-01T16:53:30;10.40;99.90
31133;DHT22;17779;50.942;4.026;2023-04-01T16:56:04;10.30;99.90
31133;DHT22;17779;50.942;4.026;2023-04-01T17:01:30;10.30;99.90
31133;DHT22;17779;50.942;4.026;2023-04-01T17:04:08;10.30;99.90
31133;DHT22;17779;50.942;4.026;2023-04-01T17:06:50;10.20;99.90
31133;DHT22;17779;50.942;4.026;2023-04-01T17:09:28;10.00;99.90
31133;DHT22;17779;50.942;4.026;2023-04-01T17:12:17;10.10;99.90
31133;DHT22;17779;50.942;4.026;2023-04-01T17:25:54;10.00;99.90
31133;DHT22;17779;50.942;4.026;2023-04-01T17:34:40;9.70;99.90
31133;DHT22;17779;50.942;4.026;2023-04-01T17:37:24;9.80;99.90
31133;DHT22;17779;50.942;4.026;2023-04-01T17:40:05;9.70;99.90
31133;DHT22;17779;50.942;4.026;2023-04-01T17:42:59;9.60;99.90
31133;DHT22;17779;50.942;4.026;2023-04-01T17:48:34;9.60;99.90
31133;DHT22;17779;50.942;4.026;2023-04-01T17:57:09;9.50;99.90
31133;DHT22;17779;50.942;4.026;2023-04-01T17:59:47;9.40;99.90
31133;DHT22;17779;50.942;4.026;2023-04-01T18:16:43;9.40;99.90
31133;DHT22;17779;50.942;4.026;2023-04-01T18:19:35;9.30;99.90
31133;DHT22;17779;50.942;4.026;2023-04-01T18:22:39;9.30;99.90
31133;DHT22;17779;50.942;4.026;2023-04-01T18:27:47;9.40;99.90
31133;DHT22;17779;50.942;4.026;2023-04-01T18:30:34;9.30;99.90
31133;DHT22;17779;50.942;4.026;2023-04-01T18:38:31;9.30;99.90
31133;DHT22;17779;50.942;4.026;2023-04-01T18:41:19;9.30;99.90
31133;DHT22;17779;50.942;4.026;2023-04-01T18:46:44;9.20;99.90
31133;DHT22;17779;50.942;4.026;2023-04-01T18:49:39;9.20;99.90
31133;DHT22;17779;50.942;4.026;2023-04-01T18:52:36;9.10;99.90
31133;DHT22;17779;50.942;4.026;2023-04-01T18:57:55;9.20;99.90
31133;DHT22;17779;50.942;4.026;2023-04-01T19:00:32;9.10;99.90
31133;DHT22;17779;50.942;4.026;2023-04-01T19:03:27;9.20;99.90
31133;DHT22;17779;50.942;4.026;2023-04-01T19:06:01;9.10;99.90
31133;DHT22;17779;50.942;4.026;2023-04-01T19:08:38;9.10;99.90
31133;DHT22;17779;50.942;4.026;2023-04-01T19:11:36;9.10;99.90
31133;DHT22;17779;50.942;4.026;2023-04-01T19:19:41;9.10;99.90
31133;DHT22;17779;50.942;4.026;2023-04-01T19:28:22;9.10;99.90
31133;DHT22;17779;50.942;4.026;2023-04-01T19:39:03;9.10;99.90
31133;DHT22;17779;50.942;4.026;2023-04-01T19:41:48;9.10;99.90
31133;DHT22;17779;50.942;4.026;2023-04-01T19:46:55;9.10;99.90
31133;DHT22;17779;50.942;4.026;2023-04-01T19:52:31;9.10;99.90
31133;DHT22;17779;50.942;4.026;2023-04-01T19:58:19;9.10;99.90
31133;DHT22;17779;50.942;4.026;2023-04-01T20:00:56;9.10;99.90
31133;DHT22;17779;50.942;4.026;2023-04-01T20:03:47;9.10;99.90
31133;DHT22;17779;50.942;4.026;2023-04-01T20:06:28;9.10;99.90
31133;DHT22;17779;50.942;4.026;2023-04-01T20:09:47;9.10;99.90
31133;DHT22;17779;50.942;4.026;2023-04-01T20:12:34;9.10;99.90
31133;DHT22;17779;50.942;4.026;2023-04-01T20:17:48;9.00;99.90
31133;DHT22;17779;50.942;4.026;2023-04-01T20:20:20;9.00;99.90
31133;DHT22;17779;50.942;4.026;2023-04-01T20:25:52;9.00;99.90
31133;DHT22;17779;50.942;4.026;2023-04-01T20:31:18;9.00;99.90
31133;DHT22;17779;50.942;4.026;2023-04-01T20:36:34;9.00;99.90
31133;DHT22;17779;50.942;4.026;2023-04-01T20:39:16;9.10;99.90
31133;DHT22;17779;50.942;4.026;2023-04-01T20:44:36;9.10;99.90
31133;DHT22;17779;50.942;4.026;2023-04-01T20:52:55;9.10;99.90
31133;DHT22;17779;50.942;4.026;2023-04-01T21:11:24;9.20;99.90
31133;DHT22;17779;50.942;4.026;2023-04-01T21:17:02;9.10;99.90
31133;DHT22;17779;50.942;4.026;2023-04-01T21:22:58;9.10;99.90
31133;DHT22;17779;50.942;4.026;2023-04-01T21:25:59;9.10;99.90
31133;DHT22;17779;50.942;4.026;2023-04-01T21:28:50;9.10;99.90
31133;DHT22;17779;50.942;4.026;2023-04-01T21:31:46;9.10;99.90
31133;DHT22;17779;50.942;4.026;2023-04-01T21:34:40;9.10;99.90
31133;DHT22;17779;50.942;4.026;2023-04-01T21:40:37;9.10;99.90
31133;DHT22;17779;50.942;4.026;2023-04-01T21:49:28;9.10;99.90
31133;DHT22;17779;50.942;4.026;2023-04-01T22:03:56;9.10;99.90
31133;DHT22;17779;50.942;4.026;2023-04-01T22:06:39;9.10;99.90
31133;DHT22;17779;50.942;4.026;2023-04-01T22:09:12;9.10;99.90
31133;DHT22;17779;50.942;4.026;2023-04-01T22:12:15;9.10;99.90
31133;DHT22;17779;50.942;4.026;2023-04-01T22:19:55;9.20;99.90
31133;DHT22;17779;50.942;4.026;2023-04-01T22:22:22;9.20;99.90
31133;DHT22;17779;50.942;4.026;2023-04-01T22:24:55;9.20;99.90
31133;DHT22;17779;50.942;4.026;2023-04-01T22:27:49;9.20;99.90
31133;DHT22;17779;50.942;4.026;2023-04-01T22:32:59;9.20;99.90
31133;DHT22;17779;50.942;4.026;2023-04-01T22:46:31;9.10;99.90
31133;DHT22;17779;50.942;4.026;2023-04-01T22:49:26;9.20;99.90
31133;DHT22;17779;50.942;4.026;2023-04-01T22:59:39;9.10;99.90
31133;DHT22;17779;50.942;4.026;2023-04-01T23:02:32;9.10;99.90
31133;DHT22;17779;50.942;4.026;2023-04-01T23:05:02;9.20;99.90
31133;DHT22;17779;50.942;4.026;2023-04-01T23:07:38;9.20;99.90
31133;DHT22;17779;50.942;4.026;2023-04-01T23:13:02;9.20;99.90
31133;DHT22;17779;50.942;4.026;2023-04-01T23:15:29;9.20;99.90
31133;DHT22;17779;50.942;4.026;2023-04-01T23:23:15;9.10;99.90
31133;DHT22;17779;50.942;4.026;2023-04-01T23:36:56;9.10;99.90
31133;DHT22;17779;50.942;4.026;2023-04-01T23:42:03;9.10;99.90
31133;DHT22;17779;50.942;4.026;2023-04-01T23:44:31;9.10;99.90
31133;DHT22;17779;50.942;4.026;2023-04-01T23:46:57;9.10;99.90
31133;DHT22;17779;50.942;4.026;2023-04-01T23:49:30;9.10;99.90
31133;DHT22;17779;50.942;4.026;2023-04-01T23:52:29;9.20;99.90
31133;DHT22;17779;50.942;4.026;2023-04-01T23:55:03;9.20;99.90
31133;DHT22;17779;50.942;4.026;2023-04-01T23:57:35;9.10;99.90
